Terminal Aerodrome Forecast
Issued by NWS

Home | Current Version | Previous Version | Text Only | Print | Product List | Glossary Off
Versions: 1 2 3 4 5 6 7 8 9 10 11 12 13 14

992
FTUS45 KGGW 171725
TAFSDY
TAF
KSDY 171725Z 1718/1818 VRB04KT P6SM BKN180
     FM172100 27006KT P6SM SCT180
     FM180000 32007KT P6SM SCT070
     FM181200 29007KT P6SM BKN070=

USA.gov is the U.S. government's official web portal to all federal, state and local government web resources and services.